sensor_id;sensor_type;location;lat;lon;timestamp;pressure;altitude;pressure_sealevel;temperature;humidity
46015;BME280;36844;51.898;-0.874;2022-11-20T00:01:06;99962.66;;;19.14;
46015;BME280;36844;51.898;-0.874;2022-11-20T00:03:31;99957.34;;;19.10;
46015;BME280;36844;51.898;-0.874;2022-11-20T00:06:00;99963.19;;;19.09;
46015;BME280;36844;51.898;-0.874;2022-11-20T00:08:26;99954.72;;;19.07;
46015;BME280;36844;51.898;-0.874;2022-11-20T00:10:51;99959.78;;;19.05;
46015;BME280;36844;51.898;-0.874;2022-11-20T00:13:16;99936.31;;;19.02;
46015;BME280;36844;51.898;-0.874;2022-11-20T00:15:41;99935.53;;;19.01;
46015;BME280;36844;51.898;-0.874;2022-11-20T00:18:07;99925.59;;;18.98;
46015;BME280;36844;51.898;-0.874;2022-11-20T00:20:32;99942.97;;;18.97;
46015;BME280;36844;51.898;-0.874;2022-11-20T00:22:57;99933.75;;;18.95;
46015;BME280;36844;51.898;-0.874;2022-11-20T00:25:22;99925.31;;;18.93;
46015;BME280;36844;51.898;-0.874;2022-11-20T00:27:47;99921.47;;;18.90;
46015;BME280;36844;51.898;-0.874;2022-11-20T00:30:13;99913.81;;;18.89;
46015;BME280;36844;51.898;-0.874;2022-11-20T00:32:38;99926.19;;;18.86;
46015;BME280;36844;51.898;-0.874;2022-11-20T00:35:03;99927.38;;;18.85;
46015;BME280;36844;51.898;-0.874;2022-11-20T00:37:28;99927.03;;;18.83;
46015;BME280;36844;51.898;-0.874;2022-11-20T00:39:53;99924.00;;;18.81;
46015;BME280;36844;51.898;-0.874;2022-11-20T00:42:19;99916.72;;;18.78;
46015;BME280;36844;51.898;-0.874;2022-11-20T00:44:44;99912.50;;;18.77;
46015;BME280;36844;51.898;-0.874;2022-11-20T00:47:09;99910.19;;;18.75;
46015;BME280;36844;51.898;-0.874;2022-11-20T00:49:34;99900.25;;;18.72;
46015;BME280;36844;51.898;-0.874;2022-11-20T00:52:00;99897.94;;;18.71;
46015;BME280;36844;51.898;-0.874;2022-11-20T00:54:25;99900.31;;;18.69;
46015;BME280;36844;51.898;-0.874;2022-11-20T00:56:52;99898.44;;;18.66;
46015;BME280;36844;51.898;-0.874;2022-11-20T00:59:17;99899.59;;;18.65;
46015;BME280;36844;51.898;-0.874;2022-11-20T01:01:42;99898.06;;;18.64;
46015;BME280;36844;51.898;-0.874;2022-11-20T01:04:08;99889.66;;;18.62;
46015;BME280;36844;51.898;-0.874;2022-11-20T01:06:34;99883.16;;;18.59;
46015;BME280;36844;51.898;-0.874;2022-11-20T01:09:03;99877.41;;;18.57;
46015;BME280;36844;51.898;-0.874;2022-11-20T01:11:34;99877.81;;;18.56;
46015;BME280;36844;51.898;-0.874;2022-11-20T01:14:00;99879.00;;;18.55;
46015;BME280;36844;51.898;-0.874;2022-11-20T01:16:27;99881.31;;;18.53;
46015;BME280;36844;51.898;-0.874;2022-11-20T01:18:53;99879.81;;;18.52;
46015;BME280;36844;51.898;-0.874;2022-11-20T01:23:44;99871.03;;;18.48;
46015;BME280;36844;51.898;-0.874;2022-11-20T01:26:15;99865.28;;;18.46;
46015;BME280;36844;51.898;-0.874;2022-11-20T01:28:40;99859.88;;;18.46;
46015;BME280;36844;51.898;-0.874;2022-11-20T01:33:38;99853.44;;;18.40;
46015;BME280;36844;51.898;-0.874;2022-11-20T01:36:04;99865.41;;;18.39;
46015;BME280;36844;51.898;-0.874;2022-11-20T01:38:30;99858.50;;;18.38;
46015;BME280;36844;51.898;-0.874;2022-11-20T01:40:55;99853.50;;;18.36;
46015;BME280;36844;51.898;-0.874;2022-11-20T01:43:21;99851.25;;;18.35;
46015;BME280;36844;51.898;-0.874;2022-11-20T01:48:17;99838.56;;;18.32;
46015;BME280;36844;51.898;-0.874;2022-11-20T01:50:43;99837.06;;;18.31;
46015;BME280;36844;51.898;-0.874;2022-11-20T01:53:09;99838.22;;;18.30;
46015;BME280;36844;51.898;-0.874;2022-11-20T01:55:37;99836.69;;;18.29;
46015;BME280;36844;51.898;-0.874;2022-11-20T01:58:04;99839.06;;;18.27;
46015;BME280;36844;51.898;-0.874;2022-11-20T02:00:30;99834.81;;;18.26;
46015;BME280;36844;51.898;-0.874;2022-11-20T02:03:00;99832.53;;;18.24;
46015;BME280;36844;51.898;-0.874;2022-11-20T02:05:28;99831.81;;;18.24;
46015;BME280;36844;51.898;-0.874;2022-11-20T02:07:56;99821.81;;;18.21;
46015;BME280;36844;51.898;-0.874;2022-11-20T02:10:22;99824.50;;;18.21;
46015;BME280;36844;51.898;-0.874;2022-11-20T02:12:48;99827.63;;;18.19;
46015;BME280;36844;51.898;-0.874;2022-11-20T02:15:32;99823.41;;;18.18;
46015;BME280;36844;51.898;-0.874;2022-11-20T02:17:57;99818.44;;;18.17;
46015;BME280;36844;51.898;-0.874;2022-11-20T02:20:23;99816.16;;;18.15;
46015;BME280;36844;51.898;-0.874;2022-11-20T02:22:50;99809.22;;;18.14;
46015;BME280;36844;51.898;-0.874;2022-11-20T02:25:17;99798.91;;;18.13;
46015;BME280;36844;51.898;-0.874;2022-11-20T02:27:43;99793.50;;;18.13;
46015;BME280;36844;51.898;-0.874;2022-11-20T02:30:08;99788.50;;;18.11;
46015;BME280;36844;51.898;-0.874;2022-11-20T02:32:35;99784.28;;;18.10;
46015;BME280;36844;51.898;-0.874;2022-11-20T02:35:38;99777.03;;;18.07;
46015;BME280;36844;51.898;-0.874;2022-11-20T02:37:59;99772.06;;;18.06;
46015;BME280;36844;51.898;-0.874;2022-11-20T02:40:26;99765.91;;;18.05;
46015;BME280;36844;51.898;-0.874;2022-11-20T02:42:51;99760.91;;;18.04;
46015;BME280;36844;51.898;-0.874;2022-11-20T02:45:17;99762.06;;;18.03;
46015;BME280;36844;51.898;-0.874;2022-11-20T02:47:42;99752.47;;;18.02;
46015;BME280;36844;51.898;-0.874;2022-11-20T02:50:07;99756.38;;;18.01;
46015;BME280;36844;51.898;-0.874;2022-11-20T02:52:32;99749.44;;;18.00;
46015;BME280;36844;51.898;-0.874;2022-11-20T02:54:58;99748.66;;;17.99;
46015;BME280;36844;51.898;-0.874;2022-11-20T02:57:23;99741.78;;;17.98;
46015;BME280;36844;51.898;-0.874;2022-11-20T02:59:48;99732.19;;;17.97;
46015;BME280;36844;51.898;-0.874;2022-11-20T03:02:13;99726.44;;;17.95;
46015;BME280;36844;51.898;-0.874;2022-11-20T03:04:39;99722.97;;;17.95;
46015;BME280;36844;51.898;-0.874;2022-11-20T03:07:04;99722.97;;;17.95;
46015;BME280;36844;51.898;-0.874;2022-11-20T03:09:29;99713.78;;;17.92;
46015;BME280;36844;51.898;-0.874;2022-11-20T03:11:54;99713.03;;;17.92;
46015;BME280;36844;51.898;-0.874;2022-11-20T03:14:20;99705.34;;;17.90;
46015;BME280;36844;51.898;-0.874;2022-11-20T03:16:45;99699.22;;;17.90;
46015;BME280;36844;51.898;-0.874;2022-11-20T03:19:11;99703.06;;;17.89;
46015;BME280;36844;51.898;-0.874;2022-11-20T03:21:36;99698.88;;;17.88;
46015;BME280;36844;51.898;-0.874;2022-11-20T03:24:02;99691.94;;;17.87;
46015;BME280;36844;51.898;-0.874;2022-11-20T03:26:27;99687.75;;;17.86;
46015;BME280;36844;51.898;-0.874;2022-11-20T03:28:54;99678.91;;;17.85;
46015;BME280;36844;51.898;-0.874;2022-11-20T03:31:29;99676.63;;;17.84;
46015;BME280;36844;51.898;-0.874;2022-11-20T03:33:55;99668.53;;;17.84;
46015;BME280;36844;51.898;-0.874;2022-11-20T03:36:21;99661.63;;;17.83;
46015;BME280;36844;51.898;-0.874;2022-11-20T03:38:46;99658.63;;;17.81;
46015;BME280;36844;51.898;-0.874;2022-11-20T03:41:12;99653.63;;;17.79;
46015;BME280;36844;51.898;-0.874;2022-11-20T03:43:38;99651.34;;;17.77;
46015;BME280;36844;51.898;-0.874;2022-11-20T03:46:04;99644.44;;;17.77;
46015;BME280;36844;51.898;-0.874;2022-11-20T03:48:29;99645.59;;;17.75;
46015;BME280;36844;51.898;-0.874;2022-11-20T03:53:32;99635.66;;;17.72;
46015;BME280;36844;51.898;-0.874;2022-11-20T03:55:58;99635.66;;;17.72;
46015;BME280;36844;51.898;-0.874;2022-11-20T03:58:23;99634.13;;;17.71;
46015;BME280;36844;51.898;-0.874;2022-11-20T04:00:48;99619.16;;;17.70;
46015;BME280;36844;51.898;-0.874;2022-11-20T04:03:13;99620.34;;;17.69;
46015;BME280;36844;51.898;-0.874;2022-11-20T04:05:38;99616.13;;;17.68;
46015;BME280;36844;51.898;-0.874;2022-11-20T04:08:04;99622.66;;;17.67;
46015;BME280;36844;51.898;-0.874;2022-11-20T04:10:29;99617.28;;;17.67;
46015;BME280;36844;51.898;-0.874;2022-11-20T04:12:54;99617.69;;;17.66;
46015;BME280;36844;51.898;-0.874;2022-11-20T04:15:19;99620.38;;;17.66;
46015;BME280;36844;51.898;-0.874;2022-11-20T04:17:45;99608.09;;;17.65;
46015;BME280;36844;51.898;-0.874;2022-11-20T04:20:10;99605.81;;;17.63;
46015;BME280;36844;51.898;-0.874;2022-11-20T04:22:35;99604.31;;;17.62;
46015;BME280;36844;51.898;-0.874;2022-11-20T04:25:00;99597.41;;;17.61;
46015;BME280;36844;51.898;-0.874;2022-11-20T04:27:26;99599.34;;;17.61;
46015;BME280;36844;51.898;-0.874;2022-11-20T04:29:51;99594.34;;;17.59;
46015;BME280;36844;51.898;-0.874;2022-11-20T04:32:16;99593.59;;;17.59;
46015;BME280;36844;51.898;-0.874;2022-11-20T04:34:41;99586.72;;;17.58;
46015;BME280;36844;51.898;-0.874;2022-11-20T04:37:06;99575.19;;;17.57;
46015;BME280;36844;51.898;-0.874;2022-11-20T04:39:32;99573.63;;;17.56;
46015;BME280;36844;51.898;-0.874;2022-11-20T04:41:57;99567.50;;;17.56;
46015;BME280;36844;51.898;-0.874;2022-11-20T04:44:40;99574.06;;;17.55;
46015;BME280;36844;51.898;-0.874;2022-11-20T04:47:06;99568.31;;;17.53;
46015;BME280;36844;51.898;-0.874;2022-11-20T04:49:31;99574.88;;;17.52;
46015;BME280;36844;51.898;-0.874;2022-11-20T04:51:57;99566.03;;;17.51;
46015;BME280;36844;51.898;-0.874;2022-11-20T04:54:22;99566.03;;;17.51;
46015;BME280;36844;51.898;-0.874;2022-11-20T04:56:47;99558.38;;;17.50;
46015;BME280;36844;51.898;-0.874;2022-11-20T04:59:13;99560.31;;;17.49;
46015;BME280;36844;51.898;-0.874;2022-11-20T05:01:38;99556.09;;;17.48;
46015;BME280;36844;51.898;-0.874;2022-11-20T05:04:03;99553.41;;;17.48;
46015;BME280;36844;51.898;-0.874;2022-11-20T05:06:28;99545.00;;;17.46;
46015;BME280;36844;51.898;-0.874;2022-11-20T05:08:54;99538.84;;;17.46;
46015;BME280;36844;51.898;-0.874;2022-11-20T05:11:19;99541.94;;;17.44;
46015;BME280;36844;51.898;-0.874;2022-11-20T05:13:45;99541.94;;;17.44;
46015;BME280;36844;51.898;-0.874;2022-11-20T05:16:12;99541.63;;;17.42;
46015;BME280;36844;51.898;-0.874;2022-11-20T05:18:37;99547.00;;;17.42;
46015;BME280;36844;51.898;-0.874;2022-11-20T05:21:03;99540.84;;;17.42;
46015;BME280;36844;51.898;-0.874;2022-11-20T05:23:29;99546.63;;;17.40;
46015;BME280;36844;51.898;-0.874;2022-11-20T05:25:54;99543.94;;;17.40;
46015;BME280;36844;51.898;-0.874;2022-11-20T05:28:20;99537.81;;;17.40;
46015;BME280;36844;51.898;-0.874;2022-11-20T05:30:45;99547.84;;;17.39;
46015;BME280;36844;51.898;-0.874;2022-11-20T05:33:11;99543.59;;;17.38;
46015;BME280;36844;51.898;-0.874;2022-11-20T05:35:36;99544.75;;;17.37;
46015;BME280;36844;51.898;-0.874;2022-11-20T05:38:01;99545.91;;;17.36;
46015;BME280;36844;51.898;-0.874;2022-11-20T05:40:26;99557.13;;;17.35;
46015;BME280;36844;51.898;-0.874;2022-11-20T05:42:52;99559.06;;;17.34;
46015;BME280;36844;51.898;-0.874;2022-11-20T05:45:17;99549.06;;;17.35;
46015;BME280;36844;51.898;-0.874;2022-11-20T05:47:42;99542.91;;;17.34;
46015;BME280;36844;51.898;-0.874;2022-11-20T05:50:07;99550.63;;;17.32;
46015;BME280;36844;51.898;-0.874;2022-11-20T05:52:32;99549.44;;;17.33;
46015;BME280;36844;51.898;-0.874;2022-11-20T05:54:58;99542.56;;;17.32;
46015;BME280;36844;51.898;-0.874;2022-11-20T05:57:23;99536.44;;;17.32;
46015;BME280;36844;51.898;-0.874;2022-11-20T05:59:48;99529.53;;;17.31;
46015;BME280;36844;51.898;-0.874;2022-11-20T06:02:13;99534.13;;;17.30;
46015;BME280;36844;51.898;-0.874;2022-11-20T06:04:39;99537.59;;;17.31;
46015;BME280;36844;51.898;-0.874;2022-11-20T06:07:04;99538.75;;;17.30;
46015;BME280;36844;51.898;-0.874;2022-11-20T06:09:30;99535.28;;;17.29;
46015;BME280;36844;51.898;-0.874;2022-11-20T06:11:55;99531.13;;;17.28;
46015;BME280;36844;51.898;-0.874;2022-11-20T06:14:20;99526.53;;;17.25;
46015;BME280;36844;51.898;-0.874;2022-11-20T06:16:45;99522.69;;;17.26;
46015;BME280;36844;51.898;-0.874;2022-11-20T06:19:11;99528.06;;;17.26;
46015;BME280;36844;51.898;-0.874;2022-11-20T06:21:36;99518.44;;;17.25;
46015;BME280;36844;51.898;-0.874;2022-11-20T06:24:01;99526.53;;;17.25;
46015;BME280;36844;51.898;-0.874;2022-11-20T06:26:26;99522.34;;;17.24;
46015;BME280;36844;51.898;-0.874;2022-11-20T06:28:53;99525.06;;;17.24;
46015;BME280;36844;51.898;-0.874;2022-11-20T06:31:20;99520.81;;;17.23;
46015;BME280;36844;51.898;-0.874;2022-11-20T06:33:46;99522.75;;;17.23;
46015;BME280;36844;51.898;-0.874;2022-11-20T06:36:12;99513.13;;;17.22;
46015;BME280;36844;51.898;-0.874;2022-11-20T06:38:38;99510.44;;;17.22;
46015;BME280;36844;51.898;-0.874;2022-11-20T06:41:04;99509.72;;;17.21;
46015;BME280;36844;51.898;-0.874;2022-11-20T06:43:29;99511.63;;;17.21;
46015;BME280;36844;51.898;-0.874;2022-11-20T06:45:55;99498.19;;;17.21;
46015;BME280;36844;51.898;-0.874;2022-11-20T06:48:21;99510.91;;;17.20;
46015;BME280;36844;51.898;-0.874;2022-11-20T06:50:46;99513.13;;;17.22;
46015;BME280;36844;51.898;-0.874;2022-11-20T06:53:11;99511.22;;;17.22;
46015;BME280;36844;51.898;-0.874;2022-11-20T06:55:37;99514.69;;;17.23;
46015;BME280;36844;51.898;-0.874;2022-11-20T06:58:06;99525.06;;;17.24;
46015;BME280;36844;51.898;-0.874;2022-11-20T07:00:31;99518.44;;;17.25;
46015;BME280;36844;51.898;-0.874;2022-11-20T07:02:57;99516.13;;;17.27;
46015;BME280;36844;51.898;-0.874;2022-11-20T07:05:22;99513.78;;;17.29;
46015;BME280;36844;51.898;-0.874;2022-11-20T07:07:47;99518.00;;;17.30;
46015;BME280;36844;51.898;-0.874;2022-11-20T07:10:13;99512.53;;;17.34;
46015;BME280;36844;51.898;-0.874;2022-11-20T07:12:38;99515.63;;;17.36;
46015;BME280;36844;51.898;-0.874;2022-11-20T07:15:03;99511.31;;;17.38;
46015;BME280;36844;51.898;-0.874;2022-11-20T07:17:29;99516.63;;;17.42;
46015;BME280;36844;51.898;-0.874;2022-11-20T07:19:54;99516.94;;;17.44;
46015;BME280;36844;51.898;-0.874;2022-11-20T07:22:19;99516.94;;;17.47;
46015;BME280;36844;51.898;-0.874;2022-11-20T07:24:46;99515.31;;;17.50;
46015;BME280;36844;51.898;-0.874;2022-11-20T07:27:11;99517.94;;;17.53;
46015;BME280;36844;51.898;-0.874;2022-11-20T07:29:37;99507.09;;;17.57;
46015;BME280;36844;51.898;-0.874;2022-11-20T07:32:02;99516.25;;;17.59;
46015;BME280;36844;51.898;-0.874;2022-11-20T07:34:28;99522.03;;;17.61;
46015;BME280;36844;51.898;-0.874;2022-11-20T07:36:54;99518.50;;;17.64;
46015;BME280;36844;51.898;-0.874;2022-11-20T07:39:19;99519.56;;;17.67;
46015;BME280;36844;51.898;-0.874;2022-11-20T07:41:44;99515.34;;;17.69;
46015;BME280;36844;51.898;-0.874;2022-11-20T07:44:09;99516.41;;;17.72;
46015;BME280;36844;51.898;-0.874;2022-11-20T07:46:34;99519.44;;;17.74;
46015;BME280;36844;51.898;-0.874;2022-11-20T07:49:00;99528.66;;;17.77;
46015;BME280;36844;51.898;-0.874;2022-11-20T07:51:25;99535.88;;;17.80;
46015;BME280;36844;51.898;-0.874;2022-11-20T07:53:53;99538.91;;;17.82;
46015;BME280;36844;51.898;-0.874;2022-11-20T07:56:19;99543.03;;;17.86;
46015;BME280;36844;51.898;-0.874;2022-11-20T07:58:44;99545.34;;;17.88;
46015;BME280;36844;51.898;-0.874;2022-11-20T08:01:09;99549.13;;;17.90;
46015;BME280;36844;51.898;-0.874;2022-11-20T08:03:34;99546.78;;;17.92;
46015;BME280;36844;51.898;-0.874;2022-11-20T08:06:02;99543.66;;;17.94;
46015;BME280;36844;51.898;-0.874;2022-11-20T08:08:28;99547.47;;;17.96;
46015;BME280;36844;51.898;-0.874;2022-11-20T08:10:53;99549.72;;;17.98;
46015;BME280;36844;51.898;-0.874;2022-11-20T08:13:39;99552.78;;;18.00;
46015;BME280;36844;51.898;-0.874;2022-11-20T08:16:22;99558.94;;;18.00;
46015;BME280;36844;51.898;-0.874;2022-11-20T08:18:48;99558.50;;;18.02;
46015;BME280;36844;51.898;-0.874;2022-11-20T08:21:13;99558.84;;;18.04;
46015;BME280;36844;51.898;-0.874;2022-11-20T08:23:38;99561.88;;;18.06;
46015;BME280;36844;51.898;-0.874;2022-11-20T08:26:03;99568.03;;;18.06;
46015;BME280;36844;51.898;-0.874;2022-11-20T08:28:29;99564.16;;;18.07;
46015;BME280;36844;51.898;-0.874;2022-11-20T08:30:57;99566.47;;;18.09;
46015;BME280;36844;51.898;-0.874;2022-11-20T08:33:23;99569.16;;;18.09;
46015;BME280;36844;51.898;-0.874;2022-11-20T08:35:48;99561.38;;;18.11;
46015;BME280;36844;51.898;-0.874;2022-11-20T08:38:13;99569.47;;;18.11;
46015;BME280;36844;51.898;-0.874;2022-11-20T08:40:39;99574.47;;;18.12;
46015;BME280;36844;51.898;-0.874;2022-11-20T08:43:04;99569.06;;;18.12;
46015;BME280;36844;51.898;-0.874;2022-11-20T08:45:29;99575.22;;;18.13;
46015;BME280;36844;51.898;-0.874;2022-11-20T08:47:59;99573.28;;;18.13;
46015;BME280;36844;51.898;-0.874;2022-11-20T08:50:24;99574.00;;;18.14;
46015;BME280;36844;51.898;-0.874;2022-11-20T08:52:49;99570.16;;;18.15;
46015;BME280;36844;51.898;-0.874;2022-11-20T08:55:14;99570.94;;;18.15;
46015;BME280;36844;51.898;-0.874;2022-11-20T08:57:40;99577.09;;;18.16;
46015;BME280;36844;51.898;-0.874;2022-11-20T09:00:06;99583.97;;;18.17;
46015;BME280;36844;51.898;-0.874;2022-11-20T09:02:32;99583.25;;;18.16;
46015;BME280;36844;51.898;-0.874;2022-11-20T09:04:57;99583.97;;;18.17;
46015;BME280;36844;51.898;-0.874;2022-11-20T09:07:22;99589.38;;;18.17;
46015;BME280;36844;51.898;-0.874;2022-11-20T09:09:47;99585.47;;;18.18;
46015;BME280;36844;51.898;-0.874;2022-11-20T09:12:13;99590.88;;;18.18;
46015;BME280;36844;51.898;-0.874;2022-11-20T09:14:38;99598.97;;;18.18;
46015;BME280;36844;51.898;-0.874;2022-11-20T09:17:03;99597.03;;;18.18;
46015;BME280;36844;51.898;-0.874;2022-11-20T09:19:29;99597.03;;;18.18;
46015;BME280;36844;51.898;-0.874;2022-11-20T09:21:54;99593.94;;;18.20;
46015;BME280;36844;51.898;-0.874;2022-11-20T09:24:19;99595.09;;;18.19;
46015;BME280;36844;51.898;-0.874;2022-11-20T09:26:46;99585.84;;;18.20;
46015;BME280;36844;51.898;-0.874;2022-11-20T09:29:11;99582.41;;;18.19;
46015;BME280;36844;51.898;-0.874;2022-11-20T09:31:36;99585.84;;;18.20;
46015;BME280;36844;51.898;-0.874;2022-11-20T09:34:01;99589.31;;;18.20;
46015;BME280;36844;51.898;-0.874;2022-11-20T09:36:26;99588.56;;;18.20;
46015;BME280;36844;51.898;-0.874;2022-11-20T09:38:52;99578.53;;;18.20;
46015;BME280;36844;51.898;-0.874;2022-11-20T09:41:36;99575.06;;;18.20;
46015;BME280;36844;51.898;-0.874;2022-11-20T09:57:10;99581.94;;;18.21;
46015;BME280;36844;51.898;-0.874;2022-11-20T09:59:40;99567.75;;;18.20;
46015;BME280;36844;51.898;-0.874;2022-11-20T10:02:18;99560.06;;;18.19;
46015;BME280;36844;51.898;-0.874;2022-11-20T10:05:10;99564.69;;;18.18;
46015;BME280;36844;51.898;-0.874;2022-11-20T10:09:57;99564.69;;;18.18;
46015;BME280;36844;51.898;-0.874;2022-11-20T10:12:28;99559.31;;;18.18;
46015;BME280;36844;51.898;-0.874;2022-11-20T10:15:00;99561.69;;;18.16;
46015;BME280;36844;51.898;-0.874;2022-11-20T10:17:53;99568.53;;;18.17;
46015;BME280;36844;51.898;-0.874;2022-11-20T10:30:43;99572.53;;;18.13;
46015;BME280;36844;51.898;-0.874;2022-11-20T10:33:13;99577.94;;;18.13;
46015;BME280;36844;51.898;-0.874;2022-11-20T10:35:41;99572.94;;;18.11;
46015;BME280;36844;51.898;-0.874;2022-11-20T10:38:19;99573.69;;;18.12;
46015;BME280;36844;51.898;-0.874;2022-11-20T10:40:47;99573.69;;;18.12;
46015;BME280;36844;51.898;-0.874;2022-11-20T10:45:47;99572.16;;;18.11;
46015;BME280;36844;51.898;-0.874;2022-11-20T10:48:26;99572.94;;;18.11;
46015;BME280;36844;51.898;-0.874;2022-11-20T10:53:22;99560.63;;;18.10;
46015;BME280;36844;51.898;-0.874;2022-11-20T10:55:56;99559.88;;;18.10;
46015;BME280;36844;51.898;-0.874;2022-11-20T11:01:14;99559.53;;;18.08;
46015;BME280;36844;51.898;-0.874;2022-11-20T11:03:39;99565.69;;;18.08;
46015;BME280;36844;51.898;-0.874;2022-11-20T11:06:08;99561.47;;;18.07;
46015;BME280;36844;51.898;-0.874;2022-11-20T11:08:37;99557.28;;;18.06;
46015;BME280;36844;51.898;-0.874;2022-11-20T11:11:07;99560.69;;;18.07;
46015;BME280;36844;51.898;-0.874;2022-11-20T11:13:39;99562.66;;;18.06;
46015;BME280;36844;51.898;-0.874;2022-11-20T11:16:04;99557.28;;;18.06;
46015;BME280;36844;51.898;-0.874;2022-11-20T11:18:30;99567.28;;;18.06;
46015;BME280;36844;51.898;-0.874;2022-11-20T11:20:57;99561.13;;;18.05;
46015;BME280;36844;51.898;-0.874;2022-11-20T11:25:58;99566.16;;;18.03;
46015;BME280;36844;51.898;-0.874;2022-11-20T11:28:25;99567.34;;;18.02;
46015;BME280;36844;51.898;-0.874;2022-11-20T11:30:52;99561.97;;;18.02;
46015;BME280;36844;51.898;-0.874;2022-11-20T11:33:22;99571.97;;;18.02;
46015;BME280;36844;51.898;-0.874;2022-11-20T11:35:49;99571.25;;;18.01;
46015;BME280;36844;51.898;-0.874;2022-11-20T11:38:16;99563.53;;;18.00;
46015;BME280;36844;51.898;-0.874;2022-11-20T11:40:43;99570.88;;;17.99;
46015;BME280;36844;51.898;-0.874;2022-11-20T11:43:25;99569.34;;;17.98;
46015;BME280;36844;51.898;-0.874;2022-11-20T11:49:00;99571.38;;;17.94;
46015;BME280;36844;51.898;-0.874;2022-11-20T11:54:14;99568.31;;;17.92;
46015;BME280;36844;51.898;-0.874;2022-11-20T11:56:41;99572.97;;;17.92;
46015;BME280;36844;51.898;-0.874;2022-11-20T11:59:08;99569.50;;;17.91;
46015;BME280;36844;51.898;-0.874;2022-11-20T12:01:40;99575.31;;;17.90;
46015;BME280;36844;51.898;-0.874;2022-11-20T12:06:39;99574.97;;;17.88;
46015;BME280;36844;51.898;-0.874;2022-11-20T12:09:10;99571.50;;;17.87;
46015;BME280;36844;51.898;-0.874;2022-11-20T12:16:48;99585.06;;;17.84;
46015;BME280;36844;51.898;-0.874;2022-11-20T12:19:14;99582.34;;;17.84;
46015;BME280;36844;51.898;-0.874;2022-11-20T12:34:51;99585.81;;;17.84;
46015;BME280;36844;51.898;-0.874;2022-11-20T12:40:09;99588.50;;;17.84;
46015;BME280;36844;51.898;-0.874;2022-11-20T12:42:53;99591.53;;;17.86;
46015;BME280;36844;51.898;-0.874;2022-11-20T12:45:46;99596.19;;;17.86;
46015;BME280;36844;51.898;-0.874;2022-11-20T12:51:02;99599.22;;;17.88;
46015;BME280;36844;51.898;-0.874;2022-11-20T13:01:42;99598.72;;;17.93;
46015;BME280;36844;51.898;-0.874;2022-11-20T13:04:18;99596.03;;;17.93;
46015;BME280;36844;51.898;-0.874;2022-11-20T13:06:46;99594.44;;;17.95;
46015;BME280;36844;51.898;-0.874;2022-11-20T13:09:13;99594.44;;;17.95;
46015;BME280;36844;51.898;-0.874;2022-11-20T13:11:41;99591.75;;;17.95;
46015;BME280;36844;51.898;-0.874;2022-11-20T13:16:52;99584.84;;;17.94;
46015;BME280;36844;51.898;-0.874;2022-11-20T13:19:18;99593.69;;;17.95;
46015;BME280;36844;51.898;-0.874;2022-11-20T13:21:45;99589.06;;;17.95;
46015;BME280;36844;51.898;-0.874;2022-11-20T13:29:35;99580.56;;;17.97;
46015;BME280;36844;51.898;-0.874;2022-11-20T13:32:14;99563.63;;;17.96;
46015;BME280;36844;51.898;-0.874;2022-11-20T13:34:50;99552.84;;;17.96;
46015;BME280;36844;51.898;-0.874;2022-11-20T13:37:26;99547.47;;;17.96;
46015;BME280;36844;51.898;-0.874;2022-11-20T13:39:52;99541.66;;;17.98;
46015;BME280;36844;51.898;-0.874;2022-11-20T13:42:23;99538.97;;;17.98;
46015;BME280;36844;51.898;-0.874;2022-11-20T13:44:51;99536.25;;;17.98;
46015;BME280;36844;51.898;-0.874;2022-11-20T13:47:22;99533.56;;;17.98;
46015;BME280;36844;51.898;-0.874;2022-11-20T13:49:47;99524.75;;;17.97;
46015;BME280;36844;51.898;-0.874;2022-11-20T14:00:30;99534.34;;;17.98;
46015;BME280;36844;51.898;-0.874;2022-11-20T14:03:07;99537.03;;;17.98;
46015;BME280;36844;51.898;-0.874;2022-11-20T14:05:36;99532.41;;;17.99;
46015;BME280;36844;51.898;-0.874;2022-11-20T14:08:02;99535.09;;;17.99;
46015;BME280;36844;51.898;-0.874;2022-11-20T14:10:28;99543.19;;;17.99;
46015;BME280;36844;51.898;-0.874;2022-11-20T14:12:54;99543.94;;;17.99;
46015;BME280;36844;51.898;-0.874;2022-11-20T14:15:37;99545.13;;;17.98;
46015;BME280;36844;51.898;-0.874;2022-11-20T14:18:18;99544.34;;;17.98;
46015;BME280;36844;51.898;-0.874;2022-11-20T14:20:44;99552.84;;;17.96;
46015;BME280;36844;51.898;-0.874;2022-11-20T14:23:10;99544.75;;;17.96;
46015;BME280;36844;51.898;-0.874;2022-11-20T14:25:35;99556.31;;;17.97;
46015;BME280;36844;51.898;-0.874;2022-11-20T14:28:01;99545.19;;;17.95;
46015;BME280;36844;51.898;-0.874;2022-11-20T14:32:54;99546.69;;;17.96;
46015;BME280;36844;51.898;-0.874;2022-11-20T14:35:27;99545.19;;;17.95;
46015;BME280;36844;51.898;-0.874;2022-11-20T14:37:53;99549.03;;;17.94;
46015;BME280;36844;51.898;-0.874;2022-11-20T14:40:29;99553.69;;;17.93;
46015;BME280;36844;51.898;-0.874;2022-11-20T14:42:55;99542.16;;;17.93;
46015;BME280;36844;51.898;-0.874;2022-11-20T14:45:21;99530.63;;;17.92;
46015;BME280;36844;51.898;-0.874;2022-11-20T14:47:46;99544.50;;;17.91;
46015;BME280;36844;51.898;-0.874;2022-11-20T14:50:13;99547.97;;;17.91;
46015;BME280;36844;51.898;-0.874;2022-11-20T14:52:49;99552.59;;;17.91;
46015;BME280;36844;51.898;-0.874;2022-11-20T14:55:14;99548.38;;;17.90;
46015;BME280;36844;51.898;-0.874;2022-11-20T14:57:54;99548.38;;;17.90;
46015;BME280;36844;51.898;-0.874;2022-11-20T15:00:19;99541.47;;;17.89;
46015;BME280;36844;51.898;-0.874;2022-11-20T15:02:47;99543.38;;;17.88;
46015;BME280;36844;51.898;-0.874;2022-11-20T15:05:12;99548.03;;;17.88;
46015;BME280;36844;51.898;-0.874;2022-11-20T15:07:39;99536.50;;;17.87;
46015;BME280;36844;51.898;-0.874;2022-11-20T15:10:12;99545.34;;;17.88;
46015;BME280;36844;51.898;-0.874;2022-11-20T15:12:40;99534.22;;;17.86;
46015;BME280;36844;51.898;-0.874;2022-11-20T15:15:05;99534.22;;;17.86;
46015;BME280;36844;51.898;-0.874;2022-11-20T15:17:31;99540.78;;;17.85;
46015;BME280;36844;51.898;-0.874;2022-11-20T15:19:57;99550.81;;;17.84;
46015;BME280;36844;51.898;-0.874;2022-11-20T15:22:22;99544.66;;;17.84;
46015;BME280;36844;51.898;-0.874;2022-11-20T15:24:47;99547.00;;;17.82;
46015;BME280;36844;51.898;-0.874;2022-11-20T15:27:13;99542.81;;;17.81;
46015;BME280;36844;51.898;-0.874;2022-11-20T15:29:38;99540.84;;;17.81;